Flight Track Log - Related Links

Times and Time Zones

All times are in EDT time to prevent confusion due to time zone crossing. See the GEC8171 flight status page for this flight to view local times or setup timezone preferences in your user account.

Time Position Orientation Groundspeed Altitude Reporting Facility
EDT Latitude Longitude Course Direction KTS MPH feet Rate Location/Type
Fri 04:35:17 AM 33.6470 -84.4480 271° West 179 206 1,900  Level FlightAware ADS-B
Fri 04:35:47 AM 33.6480 -84.4740 273° West 185 213 2,900 1,309 Climbing FlightAware ADS-B
Fri 04:36:12 AM 33.6490 -84.5070 272° West 237 273 3,100 1,875 Climbing FlightAware ADS-B
Fri 04:37:07 AM 33.6520 -84.5890 273° West 279 321 5,400 2,775 Climbing FlightAware ADS-B
Fri 04:37:32 AM 33.6640 -84.6310 289° West 300 345 6,800 3,200 Climbing FlightAware ADS-B
Fri 04:37:52 AM 33.6830 -84.6470 325° Northwest 304 350 7,800 3,200 Climbing FlightAware ADS-B
Fri 04:38:02 AM 33.6980 -84.6510 347° North 309 356 8,400 3,600 Climbing FlightAware ADS-B
Fri 04:38:22 AM 33.7290 -84.6440 11° North 319 367 9,600 3,200 Climbing FlightAware ADS-B
Fri 04:39:02 AM 33.7820 -84.6100 28° Northeast 332 382 11,600 2,325 Climbing FlightAware ADS-B
Fri 04:39:42 AM 33.8360 -84.5770 27° Northeast 369 425 12,700 1,835 Climbing FlightAware ADS-B
Fri 04:40:27 AM 33.9160 -84.5260 28° Northeast 409 471 14,200 2,118 Climbing FlightAware ADS-B
Fri 04:41:07 AM 33.9880 -84.4780 29° Northeast 444 511 15,700 2,329 Climbing FlightAware ADS-B
Fri 04:41:52 AM 34.0690 -84.4240 29° Northeast 456 525 17,500 2,329 Climbing FlightAware ADS-B
Fri 04:42:32 AM 34.1470 -84.3730 28° Northeast 481 554 19,000 2,175 Climbing FlightAware ADS-B
Fri 04:43:12 AM 34.2270 -84.3200 29° Northeast 495 570 20,400 2,541 Climbing FlightAware ADS-B
Fri 04:43:57 AM 34.3220 -84.2740 22° Northeast 480 552 22,600 3,059 Climbing FlightAware ADS-B
Fri 04:44:03 AM 34.3397 -84.2694 12° North 486 559 23,000 2,270 Climbing FlightAware ADS-B
Fri 04:44:34 AM 34.4088 -84.2533 11° North 494 568 24,000 1,770 Climbing FlightAware ADS-B
Fri 04:45:04 AM 34.4769 -84.2368 11° North 504 580 24,800 1,810 Climbing FlightAware ADS-B
Fri 04:45:37 AM 34.5519 -84.2191 11° North 507 583 25,900 1,846 Climbing FlightAware ADS-B
Fri 04:46:09 AM 34.6280 -84.2013 11° North 512 589 26,800 2,190 Climbing FlightAware ADS-B
Fri 04:46:40 AM 34.6982 -84.1849 11° North 504 580 28,200 2,754 Climbing FlightAware ADS-B
Fri 04:47:10 AM 34.7674 -84.1686 11° North 493 567 29,600 2,459 Climbing FlightAware ADS-B
Fri 04:47:41 AM 34.8351 -84.1525 11° North 490 564 30,700 1,839 Climbing FlightAware ADS-B
Fri 04:48:12 AM 34.9044 -84.1361 11° North 491 565 31,500 1,263 Climbing FlightAware ADS-B
Fri 04:48:57 AM 35.0057 -84.1118 11° North 491 565 32,300 947 Climbing FlightAware ADS-B
Fri 04:49:28 AM 35.0728 -84.0958 11° North 484 557 32,700 646 Climbing FlightAware ADS-B
Fri 04:50:02 AM 35.1410 -84.0800 11° North 471 542 33,000 281 Climbing FlightAware ADS-B
Fri 04:50:32 AM 35.2142 -84.0623 11° North 485 558 33,000  Level FlightAware ADS-B
Fri 04:51:03 AM 35.2828 -84.0454 11° North 487 560 33,000  Level FlightAware ADS-B
Fri 04:51:35 AM 35.3532 -84.0285 11° North 489 563 33,000  Level FlightAware ADS-B
Fri 04:52:05 AM 35.4200 -84.0119 11° North 487 560 33,000  Level FlightAware ADS-B
Fri 04:52:36 AM 35.4868 -83.9957 11° North 487 560 33,000  Level FlightAware ADS-B
Fri 04:53:17 AM 35.5776 -83.9738 11° North 487 560 33,000  Level FlightAware ADS-B
Fri 04:53:47 AM 35.6460 -83.9572 11° North 485 558 33,000  Level FlightAware ADS-B
Fri 04:54:25 AM 35.7273 -83.9378 11° North 483 556 33,000  Level FlightAware ADS-B
Fri 04:54:56 AM 35.7960 -83.9209 11° North 481 554 33,000  Level FlightAware ADS-B
Fri 04:55:27 AM 35.8640 -83.9043 11° North 481 554 33,000  Level FlightAware ADS-B
Fri 04:55:41 AM 35.8938 -83.8950 14° North 482 555 33,000  Level FlightAware ADS-B
Fri 04:55:51 AM 35.9146 -83.8861 19° North 484 557 33,000  Level FlightAware ADS-B
Fri 04:56:07 AM 35.9486 -83.8671 24° Northeast 488 562 33,000  Level FlightAware ADS-B
Fri 04:56:38 AM 36.0098 -83.8280 27° Northeast 487 560 33,000  Level FlightAware ADS-B
Fri 04:57:10 AM 36.0744 -83.7873 27° Northeast 487 560 33,000  Level FlightAware ADS-B
Fri 04:57:41 AM 36.1374 -83.7476 27° Northeast 486 559 33,000  Level FlightAware ADS-B
Fri 04:58:12 AM 36.1986 -83.7087 27° Northeast 487 560 33,000 97 Level FlightAware ADS-B
Fri 04:58:43 AM 36.2599 -83.6700 27° Northeast 486 559 33,100  Climbing FlightAware ADS-B
Fri 04:59:13 AM 36.3207 -83.6314 27° Northeast 486 559 33,000 -98 Descending FlightAware ADS-B
Fri 04:59:44 AM 36.3814 -83.5927 27° Northeast 485 558 33,000  Level FlightAware ADS-B
Fri 05:00:14 AM 36.4417 -83.5542 27° Northeast 485 558 33,000  Level FlightAware ADS-B
Fri 05:00:45 AM 36.5036 -83.5147 27° Northeast 485 558 33,000  Level FlightAware ADS-B
Fri 05:01:15 AM 36.5644 -83.4758 27° Northeast 486 559 33,000  Level FlightAware ADS-B
Fri 05:01:46 AM 36.6252 -83.4368 27° Northeast 486 559 33,000  Level FlightAware ADS-B
Fri 05:02:16 AM 36.6868 -83.3974 27° Northeast 487 560 33,000  Level FlightAware ADS-B
Fri 05:02:47 AM 36.7473 -83.3585 27° Northeast 488 562 33,000  Level FlightAware ADS-B
Fri 05:03:17 AM 36.8085 -83.3190 27° Northeast 492 566 33,000  Level FlightAware ADS-B
Fri 05:03:47 AM 36.8696 -83.2794 27° Northeast 494 568 33,000 100 Level FlightAware ADS-B
Fri 05:04:17 AM 36.9305 -83.2398 27° Northeast 496 571 33,100 98 Climbing FlightAware ADS-B
Fri 05:04:48 AM 36.9935 -83.1991 27° Northeast 498 573 33,100  Level FlightAware ADS-B
Fri 05:05:18 AM 37.0552 -83.1590 27° Northeast 497 572 33,100  Level FlightAware ADS-B
Fri 05:05:49 AM 37.1171 -83.1189 27° Northeast 495 570 33,100 -98 Level FlightAware ADS-B
Fri 05:06:19 AM 37.1788 -83.0787 27° Northeast 494 568 33,000 -98 Descending FlightAware ADS-B
Fri 05:06:50 AM 37.2409 -83.0382 27° Northeast 495 570 33,000  Level FlightAware ADS-B
Fri 05:07:21 AM 37.3054 -82.9958 28° Northeast 496 571 33,000  Level FlightAware ADS-B
Fri 05:07:53 AM 37.3702 -82.9535 27° Northeast 496 571 33,000  Level FlightAware ADS-B
Fri 05:08:26 AM 37.4371 -82.9098 27° Northeast 497 572 33,000  Level FlightAware ADS-B
Fri 05:08:56 AM 37.4988 -82.8686 28° Northeast 496 571 33,000  Level FlightAware ADS-B
Fri 05:09:27 AM 37.5606 -82.8279 28° Northeast 496 571 33,000 98 Level FlightAware ADS-B
Fri 05:09:57 AM 37.6219 -82.7874 28° Northeast 495 570 33,100 98 Climbing FlightAware ADS-B
Fri 05:10:28 AM 37.6844 -82.7462 28° Northeast 494 568 33,100  Level FlightAware ADS-B
Fri 05:10:59 AM 37.7468 -82.7047 28° Northeast 490 564 33,100 -98 Level FlightAware ADS-B
Fri 05:11:29 AM 37.8075 -82.6648 27° Northeast 489 563 33,000 -98 Descending FlightAware ADS-B
Fri 05:12:00 AM 37.8680 -82.6244 28° Northeast 481 554 33,000  Level FlightAware ADS-B
Fri 05:12:30 AM 37.9276 -82.5845 28° Northeast 480 552 33,000  Level FlightAware ADS-B
Fri 05:13:02 AM 37.9901 -82.5425 28° Northeast 476 548 33,000  Level FlightAware ADS-B
Fri 05:13:32 AM 38.0492 -82.5032 28° Northeast 474 545 33,000  Level FlightAware ADS-B
Fri 05:14:03 AM 38.1091 -82.4631 28° Northeast 475 547 33,000  Level FlightAware ADS-B
Fri 05:15:02 AM 38.2190 -82.3890 28° Northeast 475 547 33,000  Level FlightAware ADS-B
Fri 05:15:10 AM 38.2380 -82.3765 27° Northeast 476 548 33,000  Level FlightAware ADS-B
Fri 05:15:42 AM 38.2980 -82.3360 28° Northeast 478 550 33,000  Level FlightAware ADS-B
Fri 05:15:47 AM 38.3105 -82.3275 28° Northeast 478 550 33,000  Level FlightAware ADS-B
Fri 05:16:17 AM 38.3701 -82.2870 28° Northeast 478 550 33,000  Level FlightAware ADS-B
Fri 05:16:51 AM 38.4360 -82.2424 28° Northeast 477 549 33,000  Level FlightAware ADS-B
Fri 05:17:23 AM 38.4987 -82.2000 28° Northeast 476 548 33,000  Level FlightAware ADS-B
Fri 05:18:32 AM 38.6270 -82.1130 28° Northeast 474 545 33,000  Level FlightAware ADS-B
Fri 05:19:12 AM 38.7040 -82.0590 29° Northeast 484 557 33,000  Level FlightAware ADS-B
Fri 05:19:52 AM 38.7820 -82.0000 31° Northeast 487 560 33,000  Level FlightAware ADS-B
Fri 05:20:37 AM 38.8650 -81.9210 37° Northeast 486 559 33,000  Level FlightAware ADS-B
Fri 05:21:17 AM 38.9390 -81.8520 36° Northeast 489 563 33,000  Level FlightAware ADS-B
Fri 05:22:02 AM 39.0190 -81.7770 36° Northeast 485 558 33,000  Level FlightAware ADS-B
Fri 05:22:42 AM 39.0910 -81.7090 36° Northeast 478 550 33,000  Level FlightAware ADS-B
Fri 05:23:22 AM 39.1610 -81.6420 37° Northeast 480 552 33,000  Level FlightAware ADS-B
Fri 05:24:07 AM 39.2410 -81.5650 37° Northeast 481 554 33,000  Level FlightAware ADS-B
Fri 05:24:47 AM 39.3110 -81.4990 36° Northeast 476 548 33,000  Level FlightAware ADS-B
Fri 05:25:27 AM 39.3830 -81.4300 37° Northeast 478 550 33,000  Level FlightAware ADS-B
Fri 05:26:12 AM 39.4640 -81.3520 37° Northeast 476 548 33,000  Level FlightAware ADS-B
Fri 05:26:52 AM 39.5360 -81.2830 36° Northeast 486 559 33,000  Level FlightAware ADS-B
Fri 05:27:37 AM 39.6160 -81.2060 37° Northeast 491 565 33,000  Level FlightAware ADS-B
Fri 05:28:17 AM 39.6900 -81.1350 36° Northeast 493 567 33,000  Level FlightAware ADS-B
Fri 05:28:57 AM 39.7640 -81.0630 37° Northeast 491 565 33,000  Level FlightAware ADS-B
Fri 05:29:42 AM 39.8460 -80.9830 37° Northeast 496 571 33,000  Level FlightAware ADS-B
Fri 05:30:22 AM 39.9200 -80.9110 37° Northeast 499 574 33,000  Level FlightAware ADS-B
Fri 05:31:07 AM 40.0050 -80.8290 36° Northeast 504 580 33,000 71 Level FlightAware ADS-B
Fri 05:31:47 AM 40.0850 -80.7670 31° Northeast 496 571 33,100  Climbing FlightAware ADS-B
Fri 05:32:32 AM 40.1720 -80.7020 30° Northeast 495 570 33,000 -71 Descending FlightAware ADS-B
Fri 05:33:12 AM 40.2510 -80.6430 30° Northeast 495 570 33,000  Level FlightAware ADS-B
Fri 05:33:52 AM 40.3320 -80.5830 29° Northeast 496 571 33,000  Level FlightAware ADS-B
Fri 05:34:37 AM 40.4200 -80.5170 30° Northeast 499 574 33,000  Level FlightAware ADS-B
Fri 05:35:02 AM 40.4720 -80.4780 30° Northeast 502 578 33,000 86 Level FlightAware ADS-B
Fri 05:35:47 AM 40.5610 -80.4100 30° Northeast 504 580 33,100 71 Climbing FlightAware ADS-B
Fri 05:36:27 AM 40.6440 -80.3480 30° Northeast 502 578 33,100 -75 Level FlightAware ADS-B
Fri 05:37:07 AM 40.7220 -80.2900 29° Northeast 503 579 33,000 -71 Descending FlightAware ADS-B
Fri 05:37:52 AM 40.8150 -80.2190 30° Northeast 505 581 33,000  Level FlightAware ADS-B
Fri 05:38:32 AM 40.8970 -80.1560 30° Northeast 508 585 33,000  Level FlightAware ADS-B
Fri 05:39:12 AM 40.9760 -80.0890 33° Northeast 513 590 33,000  Level FlightAware ADS-B
Fri 05:39:57 AM 41.0570 -79.9940 41° Northeast 514 592 33,000  Level FlightAware ADS-B
Fri 05:40:32 AM 41.1120 -79.9290 42° Northeast 514 592 33,000 71 Level FlightAware ADS-B
Fri 05:41:22 AM 41.2060 -79.8160 42° Northeast 515 593 33,100 71 Climbing FlightAware ADS-B
Fri 05:41:57 AM 41.2670 -79.7430 42° Northeast 515 593 33,100  Level FlightAware ADS-B
Fri 05:42:47 AM 41.3550 -79.6370 42° Northeast 513 590 33,100 -67 Level FlightAware ADS-B
Fri 05:43:27 AM 41.4280 -79.5500 42° Northeast 511 588 33,000 -75 Descending FlightAware ADS-B
Fri 05:44:07 AM 41.4940 -79.4700 42° Northeast 511 588 33,000  Level FlightAware ADS-B
Fri 05:44:52 AM 41.5760 -79.3700 42° Northeast 510 587 33,000  Level FlightAware ADS-B
Fri 05:45:42 AM 41.6560 -79.2730 42° Northeast 509 586 33,000  Level FlightAware ADS-B
Fri 05:46:22 AM 41.7230 -79.1910 42° Northeast 33,000  Level FlightAware ADS-B
Fri 05:47:12 AM 41.8180 -79.0750 42° Northeast 508 585 33,000  Level FlightAware ADS-B
Fri 05:47:52 AM 41.8860 -78.9910 43° Northeast 511 588 33,000 71 Level FlightAware ADS-B
Fri 05:48:37 AM 41.9670 -78.8920 42° Northeast 511 588 33,100 71 Climbing FlightAware ADS-B
Fri 05:49:17 AM 42.0330 -78.8100 43° Northeast 509 586 33,100  Level FlightAware ADS-B
Fri 05:49:52 AM 42.0950 -78.7330 43° Northeast 508 585 33,100  Level FlightAware ADS-B
Fri 05:50:32 AM 42.1640 -78.6470 43° Northeast 506 582 33,100 -71 Level FlightAware ADS-B
Fri 05:51:17 AM 42.2420 -78.5500 43° Northeast 503 579 33,000 -71 Descending FlightAware ADS-B
Fri 05:51:57 AM 42.3110 -78.4630 43° Northeast 500 575 33,000  Level FlightAware ADS-B
Fri 05:52:37 AM 42.3780 -78.3800 42° Northeast 500 575 33,000  Level FlightAware ADS-B
Fri 05:53:22 AM 42.4520 -78.2860 43° Northeast 499 574 33,000  Level FlightAware ADS-B
Fri 05:54:02 AM 42.5200 -78.2000 43° Northeast 501 577 33,000  Level FlightAware ADS-B
Fri 05:54:47 AM 42.6000 -78.0990 43° Northeast 502 578 33,000  Level FlightAware ADS-B
Fri 05:55:27 AM 42.6650 -78.0160 43° Northeast 502 578 33,000 71 Level FlightAware ADS-B
Fri 05:56:12 AM 42.7410 -77.9190 43° Northeast 502 578 33,100 71 Climbing FlightAware ADS-B
Fri 05:56:52 AM 42.8080 -77.8340 43° Northeast 503 579 33,100  Level FlightAware ADS-B
Fri 05:57:32 AM 42.8760 -77.7460 43° Northeast 502 578 33,100 -71 Level FlightAware ADS-B
Fri 05:58:17 AM 42.9460 -77.6560 43° Northeast 498 573 33,000 -71 Descending FlightAware ADS-B
Fri 05:58:57 AM 43.0150 -77.5660 44° Northeast 496 571 33,000  Level FlightAware ADS-B
Fri 05:59:42 AM 43.0850 -77.4760 43° Northeast 495 570 33,000  Level FlightAware ADS-B
Fri 06:00:22 AM 43.1540 -77.3850 44° Northeast 495 570 33,000  Level FlightAware ADS-B
Fri 06:01:12 AM 43.2350 -77.2800 43° Northeast 495 570 33,000  Level FlightAware ADS-B
Fri 06:01:57 AM 43.3040 -77.1920 43° Northeast 495 570 33,000  Level FlightAware ADS-B
Fri 06:02:37 AM 43.3610 -77.1190 43° Northeast 495 570 33,000  Level FlightAware ADS-B
Fri 06:03:17 AM 43.4170 -77.0460 43° Northeast 495 570 33,000  Level FlightAware ADS-B
Fri 06:04:07 AM 43.4890 -76.9550 43° Northeast 495 570 33,000  Level FlightAware ADS-B
Fri 06:04:47 AM 43.5460 -76.8810 43° Northeast 495 570 33,000  Level FlightAware ADS-B
Fri 06:05:32 AM 43.6650 -76.7120 46° Northeast 33,000  Level FlightAware ADS-B
Fri 06:06:07 AM 43.7250 -76.6310 44° Northeast 496 571 33,000  Level FlightAware ADS-B
Fri 06:06:52 AM 43.7990 -76.5310 44° Northeast 493 567 33,000  Level FlightAware ADS-B
Fri 06:07:37 AM 43.8730 -76.4320 44° Northeast 492 566 33,000  Level FlightAware ADS-B
Fri 06:08:17 AM 43.9410 -76.3400 44° Northeast 491 565 33,000  Level FlightAware ADS-B
Fri 06:09:02 AM 44.0140 -76.2420 44° Northeast 485 558 33,000  Level FlightAware ADS-B
Fri 06:09:42 AM 44.0790 -76.1520 45° Northeast 483 556 33,000  Level FlightAware ADS-B
Fri 06:10:22 AM 44.1420 -76.0670 44° Northeast 483 556 33,000  Level FlightAware ADS-B
Fri 06:11:07 AM 44.2150 -75.9670 44° Northeast 486 559 33,000  Level FlightAware ADS-B
Fri 06:11:47 AM 44.2830 -75.8800 42° Northeast 481 554 33,000  Level FlightAware ADS-B
Fri 06:12:27 AM 44.3480 -75.7940 43° Northeast 488 562 33,000 71 Level FlightAware ADS-B
Fri 06:13:12 AM 44.4210 -75.7000 43° Northeast 487 560 33,100  Climbing FlightAware ADS-B
Fri 06:13:52 AM 44.4880 -75.6110 43° Northeast 487 560 33,000 -75 Descending FlightAware ADS-B
Fri 06:14:32 AM 44.5540 -75.5250 43° Northeast 488 562 33,000  Level FlightAware ADS-B
Fri 06:15:17 AM 44.6280 -75.4270 43° Northeast 489 563 33,000 67 Level FlightAware ADS-B
Fri 06:16:02 AM 44.6990 -75.3320 44° Northeast 488 562 33,100 67 Climbing FlightAware ADS-B
Fri 06:16:47 AM 44.7740 -75.2340 43° Northeast 486 559 33,100 -75 Level FlightAware ADS-B
Fri 06:17:22 AM 44.8320 -75.1570 43° Northeast 477 549 33,000 -75 Descending FlightAware ADS-B
Fri 06:18:07 AM 44.9030 -75.0620 43° Northeast 475 547 33,000  Level FlightAware ADS-B
Fri 06:18:52 AM 44.9760 -74.9640 44° Northeast 474 545 33,000  Level FlightAware ADS-B
Fri 06:19:32 AM 45.0400 -74.8770 44° Northeast 475 547 33,000  Level FlightAware ADS-B
Fri 06:20:12 AM 45.1050 -74.7890 44° Northeast 476 548 33,000  Level FlightAware ADS-B
Fri 06:20:52 AM 45.1700 -74.7010 44° Northeast 479 551 33,000  Level FlightAware ADS-B
Fri 06:21:37 AM 45.2420 -74.6030 44° Northeast 488 562 33,000 67 Level FlightAware ADS-B
Fri 06:22:22 AM 45.3120 -74.5070 44° Northeast 490 564 33,100 71 Climbing FlightAware ADS-B
Fri 06:23:02 AM 45.3830 -74.4100 44° Northeast 490 564 33,100  Level FlightAware ADS-B
Fri 06:23:42 AM 45.4500 -74.3190 44° Northeast 490 564 33,100 -71 Level FlightAware ADS-B
Fri 06:24:27 AM 45.5200 -74.2200 45° Northeast 492 566 33,000 -71 Descending FlightAware ADS-B
Fri 06:25:07 AM 45.5860 -74.1300 44° Northeast 491 565 33,000  Level FlightAware ADS-B
Fri 06:25:47 AM 45.6520 -74.0380 44° Northeast 491 565 33,000  Level FlightAware ADS-B
Fri 06:26:32 AM 45.7260 -73.9340 44° Northeast 490 564 33,000  Level FlightAware ADS-B
Fri 06:27:12 AM 45.7870 -73.8490 44° Northeast 490 564 33,000  Level FlightAware ADS-B
Fri 06:27:57 AM 45.8610 -73.7450 44° Northeast 491 565 33,000 212 Level FlightAware ADS-B
Fri 06:28:37 AM 45.9260 -73.6530 45° Northeast 488 562 33,300 825 Climbing FlightAware ADS-B
Fri 06:29:17 AM 45.9900 -73.5630 44° Northeast 485 558 34,100 1,129 Climbing FlightAware ADS-B
Fri 06:30:02 AM 46.0630 -73.4590 45° Northeast 482 555 34,900 635 Climbing FlightAware ADS-B
Fri 06:30:42 AM 46.1260 -73.3690 45° Northeast 481 554 35,000 75 Climbing FlightAware ADS-B
Fri 06:31:22 AM 46.1900 -73.2780 45° Northeast 482 555 35,000  Level FlightAware ADS-B
Fri 06:32:07 AM 46.2600 -73.1770 45° Northeast 482 555 35,000  Level FlightAware ADS-B
Fri 06:32:47 AM 46.3210 -73.0880 45° Northeast 481 554 35,000  Level FlightAware ADS-B
Fri 06:33:32 AM 46.3940 -72.9840 44° Northeast 480 552 35,000  Level FlightAware ADS-B
Fri 06:34:12 AM 46.4570 -72.8920 45° Northeast 481 554 35,000  Level FlightAware ADS-B
Fri 06:34:52 AM 46.5210 -72.7990 45° Northeast 480 552 35,000  Level FlightAware ADS-B
Fri 06:35:37 AM 46.5880 -72.7010 45° Northeast 479 551 35,000  Level FlightAware ADS-B
Fri 06:36:17 AM 46.6510 -72.6080 45° Northeast 480 552 35,000  Level FlightAware ADS-B
Fri 06:37:02 AM 46.7230 -72.5020 45° Northeast 484 557 35,000  Level FlightAware ADS-B
Fri 06:37:42 AM 46.7850 -72.4100 45° Northeast 485 558 35,000  Level FlightAware ADS-B
Fri 06:38:22 AM 46.8500 -72.3140 45° Northeast 487 560 35,000 71 Level FlightAware ADS-B
Fri 06:39:07 AM 46.9190 -72.2100 46° Northeast 488 562 35,100 71 Climbing FlightAware ADS-B
Fri 06:39:47 AM 46.9790 -72.1200 46° Northeast 490 564 35,100  Level FlightAware ADS-B
Fri 06:40:27 AM 47.0440 -72.0240 45° Northeast 490 564 35,100 -71 Level FlightAware ADS-B
Fri 06:41:12 AM 47.1120 -71.9220 46° Northeast 490 564 35,000 -71 Descending FlightAware ADS-B
Fri 06:41:52 AM 47.1740 -71.8270 46° Northeast 489 563 35,000  Level FlightAware ADS-B
Fri 06:42:37 AM 47.2450 -71.7190 46° Northeast 488 562 35,000  Level FlightAware ADS-B
Fri 06:43:17 AM 47.3080 -71.6240 46° Northeast 488 562 35,000  Level FlightAware ADS-B
Fri 06:44:02 AM 47.3770 -71.5170 46° Northeast 486 559 35,000  Level FlightAware ADS-B
Fri 06:44:42 AM 47.4400 -71.4210 46° Northeast 485 558 35,000  Level FlightAware ADS-B
Fri 06:45:22 AM 47.5020 -71.3260 46° Northeast 485 558 35,000  Level FlightAware ADS-B
Fri 06:46:02 AM 47.5630 -71.2310 46° Northeast 485 558 35,000  Level FlightAware ADS-B
Fri 06:46:47 AM 47.6330 -71.1220 46° Northeast 485 558 35,000 71 Level FlightAware ADS-B
Fri 06:47:27 AM 47.6950 -71.0260 46° Northeast 484 557 35,100 71 Climbing FlightAware ADS-B
Fri 06:48:12 AM 47.7630 -70.9180 47° Northeast 484 557 35,100 -71 Level FlightAware ADS-B
Fri 06:48:52 AM 47.8250 -70.8220 46° Northeast 485 558 35,000 -75 Descending FlightAware ADS-B
Fri 06:49:32 AM 47.8850 -70.7270 47° Northeast 485 558 35,000  Level FlightAware ADS-B
Fri 06:50:17 AM 47.9550 -70.6170 46° Northeast 486 559 35,000  Level FlightAware ADS-B
Fri 06:50:57 AM 48.0160 -70.5190 47° Northeast 486 559 35,000  Level FlightAware ADS-B
Fri 06:51:42 AM 48.0850 -70.4090 47° Northeast 486 559 35,000  Level FlightAware ADS-B
Fri 06:52:22 AM 48.1460 -70.3110 47° Northeast 488 562 35,000  Level FlightAware ADS-B
Fri 06:53:07 AM 48.2150 -70.2000 47° Northeast 492 566 35,000 71 Level FlightAware ADS-B
Fri 06:53:47 AM 48.2770 -70.1000 47° Northeast 495 570 35,100 75 Climbing FlightAware ADS-B
Fri 06:54:27 AM 48.3390 -70.0000 47° Northeast 497 572 35,100  Level FlightAware ADS-B
Fri 06:55:12 AM 48.4080 -69.8870 47° Northeast 496 571 35,100  Level FlightAware ADS-B
Fri 06:55:52 AM 48.4620 -69.8000 47° Northeast 496 571 35,100  Level FlightAware ADS-B
Fri 06:56:32 AM 48.5150 -69.7140 47° Northeast 496 571 35,100  Level FlightAware ADS-B
Fri 06:57:12 AM 48.5680 -69.6280 47° Northeast 496 571 35,100  Level FlightAware ADS-B
Fri 06:57:52 AM 48.6210 -69.5420 47° Northeast 496 571 35,100  Level FlightAware ADS-B
Fri 06:58:42 AM 48.6880 -69.4340 47° Northeast 496 571 35,100  Level FlightAware ADS-B
Fri 06:59:22 AM 48.7410 -69.3470 47° Northeast 496 571 35,100  Level FlightAware ADS-B
Fri 07:00:02 AM 48.7940 -69.2610 47° Northeast 496 571 35,100  Level FlightAware ADS-B
Fri 07:00:42 AM 48.8470 -69.1740 47° Northeast 496 571 35,100  Level FlightAware ADS-B
Fri 07:01:22 AM 48.9010 -69.0870 47° Northeast 496 571 35,100  Level FlightAware ADS-B
Fri 07:02:12 AM 48.9670 -68.9790 47° Northeast 496 571 35,100  Level FlightAware ADS-B
Fri 07:02:52 AM 49.0200 -68.8920 47° Northeast 496 571 35,100  Level FlightAware ADS-B
Fri 07:03:32 AM 49.0740 -68.8050 47° Northeast 496 571 35,100  Level FlightAware ADS-B
Fri 07:04:12 AM 49.1270 -68.7170 47° Northeast 496 571 35,100  Level FlightAware ADS-B
Fri 07:05:02 AM 49.1930 -68.6080 47° Northeast 496 571 35,100 -63 Level FlightAware ADS-B
Fri 07:05:47 AM 49.3833 -68.2500 47° Northeast 510 587 35,000 -57 Descending Moncton Center
Fri 07:06:47 AM 49.4667 -68.0833 52° Northeast 510 587 35,000  Level Moncton Center
Fri 07:07:47 AM 49.5500 -67.9000 55° Northeast 510 587 35,000  Level Moncton Center
Fri 07:08:47 AM 49.6667 -67.7333 43° Northeast 510 587 35,000  Level Moncton Center
Fri 07:09:47 AM 49.7500 -67.5833 49° Northeast 510 587 35,000  Level Moncton Center
Fri 07:10:47 AM 49.8333 -67.4167 52° Northeast 510 587 35,000  Level Moncton Center
Fri 07:11:47 AM 49.9333 -67.2333 50° Northeast 510 587 35,000  Level Moncton Center
Fri 07:12:47 AM 50.0167 -67.0500 55° Northeast 510 587 35,000  Level Moncton Center
Fri 07:13:47 AM 50.1000 -66.8833 52° Northeast 510 587 35,000  Level Moncton Center
Fri 07:14:47 AM 50.1667 -66.7000 60° Northeast 490 564 35,000  Level Moncton Center
Fri 07:15:47 AM 50.2500 -66.4833 59° Northeast 530 610 35,000 50 Level Moncton Center
Fri 07:16:47 AM 50.3333 -66.2833 57° Northeast 530 610 35,100 50 Climbing Moncton Center
Fri 07:17:47 AM 50.4000 -66.1000 60° Northeast 530 610 35,100  Level Moncton Center
Fri 07:18:47 AM 50.4833 -65.9000 57° Northeast 530 610 35,100 -50 Level Moncton Center
Fri 07:19:47 AM 50.5500 -65.7167 60° Northeast 530 610 35,000 -50 Descending Moncton Center
Fri 07:20:47 AM 50.6167 -65.5000 64° Northeast 530 610 35,000  Level Moncton Center
Fri 07:21:47 AM 50.7167 -65.3000 52° Northeast 520 598 35,000  Level Moncton Center
Fri 07:22:47 AM 50.7833 -65.1167 60° Northeast 520 598 35,000  Level Moncton Center
Fri 07:23:47 AM 50.8667 -64.9000 59° Northeast 520 598 35,000  Level Moncton Center
Fri 07:24:47 AM 50.9333 -64.7167 60° Northeast 520 598 35,000  Level Moncton Center
Fri 07:25:47 AM 51.0000 -64.5000 64° Northeast 530 610 35,000  Level Moncton Center
Fri 07:26:47 AM 51.0833 -64.3167 54° Northeast 530 610 35,000  Level Moncton Center
Fri 07:27:47 AM 51.1500 -64.1000 64° Northeast 530 610 35,000  Level Moncton Center
Fri 07:28:47 AM 51.2167 -63.8833 64° Northeast 530 610 35,000  Level Moncton Center
Fri 07:29:47 AM 51.3000 -63.6667 58° Northeast 530 610 35,000  Level Moncton Center
Fri 07:30:47 AM 51.3667 -63.4833 60° Northeast 530 610 35,000  Level Moncton Center
Fri 07:31:47 AM 51.4333 -63.2667 64° Northeast 530 610 35,000  Level Moncton Center
Fri 07:32:47 AM 51.5167 -63.0500 58° Northeast 530 610 35,000  Level Moncton Center
Fri 07:33:36 AM 51.5667 -62.9000 62° Northeast 530 610 35,000  Level Gander Center
Fri 07:34:36 AM 51.6333 -62.6833 64° Northeast 530 610 35,000  Level Gander Center
Fri 07:35:36 AM 51.7000 -62.4667 64° Northeast 530 610 35,000  Level Gander Center
Fri 07:36:47 AM 51.7833 -62.2000 63° Northeast 530 610 35,000  Level Moncton Center
Fri 07:37:36 AM 51.8333 -62.0333 64° Northeast 530 610 35,000  Level Gander Center
Fri 07:38:47 AM 51.9167 -61.8000 60° Northeast 530 610 35,000  Level Moncton Center
Fri 07:39:47 AM 51.9833 -61.6000 62° Northeast 530 610 35,000  Level Moncton Center
Fri 07:40:47 AM 52.0667 -61.3833 58° Northeast 530 610 35,000  Level Moncton Center
Fri 07:41:36 AM 52.1333 -61.2000 59° Northeast 530 610 35,000  Level Gander Center
Fri 07:42:36 AM 52.2000 -60.9833 63° Northeast 530 610 35,000  Level Gander Center
Fri 07:43:36 AM 52.2500 -60.7667 69° East 530 610 35,000  Level Gander Center
Fri 07:44:36 AM 52.3167 -60.5500 63° Northeast 530 610 35,000  Level Gander Center
Fri 07:45:36 AM 52.3833 -60.3500 61° Northeast 530 610 35,000  Level Gander Center
Fri 07:46:36 AM 52.4500 -60.1000 66° East 530 610 35,000  Level Gander Center
Fri 07:47:36 AM 52.5167 -59.9000 61° Northeast 530 610 35,000  Level Gander Center
Fri 07:48:36 AM 52.5833 -59.6833 63° Northeast 530 610 35,000  Level Gander Center
Fri 07:49:36 AM 52.6500 -59.4667 63° Northeast 530 610 35,000  Level Gander Center
Fri 07:50:36 AM 52.7167 -59.2333 65° Northeast 530 610 35,000  Level Gander Center
Fri 07:51:36 AM 52.7667 -59.0167 69° East 540 621 35,000  Level Gander Center
Fri 07:52:36 AM 52.8333 -58.7833 65° Northeast 540 621 35,000  Level Gander Center
Fri 07:53:36 AM 52.9000 -58.5667 63° Northeast 540 621 35,000 50 Level Gander Center
Fri 07:54:36 AM 52.9833 -58.3333 59° Northeast 540 621 35,100  Climbing Gander Center
Fri 07:55:36 AM 53.0333 -58.1167 69° East 540 621 35,000 -50 Descending Gander Center
Fri 07:56:36 AM 53.1000 -57.9167 61° Northeast 540 621 35,000  Level Gander Center
Fri 07:57:36 AM 53.1500 -57.6500 73° East 540 621 35,000  Level Gander Center
Fri 07:58:36 AM 53.2167 -57.4500 61° Northeast 540 621 35,000  Level Gander Center
Fri 07:59:36 AM 53.2833 -57.2000 66° East 530 610 35,000  Level Gander Center
Fri 08:00:36 AM 53.3333 -57.0000 67° East 530 610 35,000  Level Gander Center
Fri 08:01:36 AM 53.4000 -56.7667 64° Northeast 520 598 35,000  Level Gander Center
Fri 08:02:36 AM 53.4500 -56.5333 70° East 520 598 35,000  Level Gander Center
Fri 08:03:36 AM 53.5167 -56.3000 64° Northeast 520 598 35,000  Level Gander Center
Fri 08:04:36 AM 53.5667 -56.1000 67° East 520 598 35,000 50 Level Gander Center
Fri 08:05:36 AM 53.6333 -55.8667 64° Northeast 530 610 35,100  Climbing Gander Center
Fri 08:06:36 AM 53.6833 -55.6333 70° East 530 610 35,000 -50 Descending Gander Center
Fri 08:07:36 AM 53.7333 -55.4000 70° East 530 610 35,000  Level Gander Center
Fri 08:08:36 AM 53.8000 -55.1667 64° Northeast 530 610 35,000  Level Gander Center
Fri 08:09:36 AM 53.8500 -54.9333 70° East 530 610 35,000  Level Gander Center
Fri 08:10:36 AM 53.9167 -54.6833 66° East 530 610 35,000  Level Gander Center
Fri 08:11:36 AM 53.9667 -54.4500 70° East 540 621 35,000 50 Level Gander Center
Fri 08:12:36 AM 54.0333 -54.2500 60° Northeast 540 621 35,100 50 Climbing Gander Center
Fri 08:13:36 AM 54.0833 -54.0000 71° East 540 621 35,100 -50 Level Gander Center
Fri 08:14:36 AM 54.1500 -53.7667 64° Northeast 540 621 35,000 -50 Descending Gander Center
Fri 08:15:36 AM 54.2000 -53.5333 70° East 540 621 35,000  Level Gander Center
Fri 08:16:36 AM 54.2500 -53.2833 71° East 540 621 35,000  Level Gander Center
Fri 08:17:36 AM 54.3000 -53.0500 70° East 530 610 35,000 50 Level Gander Center
Fri 08:18:36 AM 54.3833 -52.8333 56° Northeast 540 621 35,100 50 Climbing Gander Center
Fri 08:19:36 AM 54.4333 -52.6000 70° East 540 621 35,100 -50 Level Gander Center
Fri 08:20:36 AM 54.4833 -52.3500 71° East 540 621 35,000 -50 Descending Gander Center
Fri 08:21:36 AM 54.5333 -52.1000 71° East 540 621 35,000  Level Gander Center
Fri 08:22:36 AM 54.5833 -51.8667 70° East 540 621 35,000  Level Gander Center
Fri 08:23:36 AM 54.6333 -51.6167 71° East 540 621 35,000  Level Gander Center
Fri 08:24:36 AM 54.6833 -51.3667 71° East 540 621 35,000  Level Gander Center
Fri 08:25:36 AM 54.7333 -51.1333 70° East 540 621 35,000  Level Gander Center
Fri 08:26:36 AM 54.7833 -50.8833 71° East 540 621 35,000  Level Gander Center
Fri 08:27:36 AM 54.8500 -50.6333 65° Northeast 540 621 35,000  Level Gander Center
Fri 08:28:36 AM 54.8667 -50.4000 83° East 540 621 35,000  Level Gander Center
Fri 08:29:36 AM 54.9500 -50.1667 58° Northeast 540 621 35,000  Level Gander Center
Fri 08:30:36 AM 54.9833 -49.9167 77° East 540 621 35,000  Level Gander Center
Fri 08:32:00 AM 55.0332 -49.5873 75° East  Level FlightAware Approximate
Fri 08:39:00 AM 55.2689 -47.9286 75° East  Level FlightAware Approximate
Fri 08:40:00 AM 55.3007 -47.6901 77° East  Level FlightAware Approximate
Fri 08:41:00 AM 55.3321 -47.4512 77° East  Level FlightAware Approximate
Fri 08:42:00 AM 55.3630 -47.2119 77° East  Level FlightAware Approximate
Fri 08:43:00 AM 55.3915 -46.9709 78° East  Level FlightAware Approximate
Fri 08:44:00 AM 55.4191 -46.7301 78° East  Level FlightAware Approximate
Fri 08:45:00 AM 55.4463 -46.4889 79° East  Level FlightAware Approximate
Fri 08:46:00 AM 55.4730 -46.2473 79° East  Level FlightAware Approximate
Fri 08:47:00 AM 55.4992 -46.0055 79° East  Level FlightAware Approximate
Fri 08:48:00 AM 55.5250 -45.7633 79° East  Level FlightAware Approximate
Fri 08:49:00 AM 55.5503 -45.5209 79° East  Level FlightAware Approximate
Fri 08:50:00 AM 55.5750 -45.2781 80° East  Level FlightAware Approximate
Fri 08:51:00 AM 55.5993 -45.0350 80° East  Level FlightAware Approximate
Fri 08:52:00 AM 55.6232 -44.7916 80° East  Level FlightAware Approximate
Fri 08:53:00 AM 55.6465 -44.5479 80° East  Level FlightAware Approximate
Fri 08:54:00 AM 55.6695 -44.3039 80° East  Level FlightAware Approximate
Fri 08:55:00 AM 55.6924 -44.0598 80° East  Level FlightAware Approximate
Fri 08:56:00 AM 55.7149 -43.8154 81° East  Level FlightAware Approximate
Fri 08:57:00 AM 55.7368 -43.5708 81° East  Level FlightAware Approximate
Fri 08:58:00 AM 55.7583 -43.3259 81° East  Level FlightAware Approximate
Fri 08:59:00 AM 55.7793 -43.0807 81° East  Level FlightAware Approximate
Fri 09:00:00 AM 55.7998 -42.8352 81° East  Level FlightAware Approximate
Fri 09:01:00 AM 55.8198 -42.5895 82° East  Level FlightAware Approximate
Fri 09:02:00 AM 55.8394 -42.3435 82° East  Level FlightAware Approximate
Fri 09:03:00 AM 55.8584 -42.0973 82° East  Level FlightAware Approximate
Fri 09:04:00 AM 55.8769 -41.8509 82° East  Level FlightAware Approximate
Fri 09:05:00 AM 55.8950 -41.6042 82° East  Level FlightAware Approximate
Fri 09:06:00 AM 55.9126 -41.3573 83° East  Level FlightAware Approximate
Fri 09:07:00 AM 55.9296 -41.1101 83° East  Level FlightAware Approximate
Fri 09:08:00 AM 55.9462 -40.8628 83° East  Level FlightAware Approximate
Fri 09:09:00 AM 55.9623 -40.6152 83° East  Level FlightAware Approximate
Fri 09:10:00 AM 55.9778 -40.3675 83° East  Level FlightAware Approximate
Fri 09:11:00 AM 55.9929 -40.1195 84° East  Level FlightAware Approximate
Fri 09:12:00 AM 56.0037 -39.8709 87° East  Level FlightAware Approximate
Fri 09:13:00 AM 56.0104 -39.6216 87° East  Level FlightAware Approximate
Fri 09:14:00 AM 56.0167 -39.3723 87° East  Level FlightAware Approximate
Fri 09:15:00 AM 56.0224 -39.1229 88° East  Level FlightAware Approximate
Fri 09:16:00 AM 56.0276 -38.8734 88° East  Level FlightAware Approximate
Fri 09:17:00 AM 56.0323 -38.6238 88° East  Level FlightAware Approximate
Fri 09:18:00 AM 56.0391 -38.3744 87° East  Level FlightAware Approximate
Fri 09:19:00 AM 56.0462 -38.1250 87° East  Level FlightAware Approximate
Fri 09:20:00 AM 56.0527 -37.8754 87° East  Level FlightAware Approximate
Fri 09:21:00 AM 56.0587 -37.6258 87° East  Level FlightAware Approximate
Fri 09:22:00 AM 56.0643 -37.3761 88° East  Level FlightAware Approximate
Fri 09:23:00 AM 56.0693 -37.1263 88° East  Level FlightAware Approximate
Fri 09:24:00 AM 56.0738 -36.8764 88° East  Level FlightAware Approximate
Fri 09:25:00 AM 56.0778 -36.6266 88° East  Level FlightAware Approximate
Fri 09:26:00 AM 56.0813 -36.3766 88° East  Level FlightAware Approximate
Fri 09:27:00 AM 56.0843 -36.1266 89° East  Level FlightAware Approximate
Fri 09:28:00 AM 56.0868 -35.8766 89° East  Level FlightAware Approximate
Fri 09:29:00 AM 56.0888 -35.6266 89° East  Level FlightAware Approximate
Fri 09:30:00 AM 56.0903 -35.3765 89° East  Level FlightAware Approximate
Fri 09:31:00 AM 56.0913 -35.1264 89° East  Level FlightAware Approximate
Fri 09:32:00 AM 56.0918 -34.8763 90° East  Level FlightAware Approximate
Fri 09:33:00 AM 56.0918 -34.6262 90° East  Level FlightAware Approximate
Fri 09:34:00 AM 56.0912 -34.3761 90° East  Level FlightAware Approximate
Fri 09:35:00 AM 56.0902 -34.1260 90° East  Level FlightAware Approximate
Fri 09:36:00 AM 56.0887 -33.8760 91° East  Level FlightAware Approximate
Fri 09:37:00 AM 56.0866 -33.6259 91° East  Level FlightAware Approximate
Fri 09:38:00 AM 56.0841 -33.3759 91° East  Level FlightAware Approximate
Fri 09:39:00 AM 56.0810 -33.1259 91° East  Level FlightAware Approximate
Fri 09:40:00 AM 56.0774 -32.8760 91° East  Level FlightAware Approximate
Fri 09:41:00 AM 56.0734 -32.6261 92° East  Level FlightAware Approximate
Fri 09:42:00 AM 56.0688 -32.3763 92° East  Level FlightAware Approximate
Fri 09:43:00 AM 56.0637 -32.1265 92° East  Level FlightAware Approximate
Fri 09:44:00 AM 56.0582 -31.8768 92° East  Level FlightAware Approximate
Fri 09:45:00 AM 56.0521 -31.6272 92° East  Level FlightAware Approximate
Fri 09:46:00 AM 56.0455 -31.3776 93° East  Level FlightAware Approximate
Fri 09:47:00 AM 56.0384 -31.1282 93° East  Level FlightAware Approximate
Fri 09:48:00 AM 56.0308 -30.8788 93° East  Level FlightAware Approximate
Fri 09:49:00 AM 56.0227 -30.6296 93° East  Level FlightAware Approximate
Fri 09:50:00 AM 56.0141 -30.3804 93° East  Level FlightAware Approximate
Fri 09:51:00 AM 56.0050 -30.1314 94° East  Level FlightAware Approximate
Fri 09:52:00 AM 56.0047 -29.8825 86° East  Level FlightAware Approximate
Fri 09:53:00 AM 56.0143 -29.6335 86° East  Level FlightAware Approximate
Fri 09:54:00 AM 56.0234 -29.3844 86° East  Level FlightAware Approximate
Fri 09:55:00 AM 56.0320 -29.1352 86° East  Level FlightAware Approximate
Fri 09:56:00 AM 56.0401 -28.8859 87° East  Level FlightAware Approximate
Fri 09:57:00 AM 56.0477 -28.6365 87° East  Level FlightAware Approximate
Fri 09:58:00 AM 56.0548 -28.3870 87° East  Level FlightAware Approximate
Fri 09:59:00 AM 56.0614 -28.1374 87° East  Level FlightAware Approximate
Fri 10:00:00 AM 56.0675 -27.8877 87° East  Level FlightAware Approximate
Fri 10:00:00 AM 56.0000 -30.0000 86° East 529 609 35,000  Level ETMS Enhanced Traffic Management System
Fri 10:01:00 AM 56.0731 -27.6379 88° East  Level FlightAware Approximate
Fri 10:02:00 AM 56.0782 -27.3881 88° East  Level FlightAware Approximate
Fri 10:03:00 AM 56.0827 -27.1382 88° East  Level FlightAware Approximate
Fri 10:04:00 AM 56.0868 -26.8883 88° East  Level FlightAware Approximate
Fri 10:05:00 AM 56.0904 -26.6383 88° East  Level FlightAware Approximate
Fri 10:06:00 AM 56.1001 -24.4728 90° East 529 609 35,000  Level FlightAware Transoceanic
Fri 10:07:00 AM 56.0987 -24.2092 91° East 529 609 35,000  Level FlightAware Transoceanic
Fri 10:08:00 AM 56.0967 -23.9456 91° East 529 609 35,000  Level FlightAware Transoceanic
Fri 10:09:00 AM 56.0942 -23.6821 91° East 529 609 35,000  Level FlightAware Transoceanic
Fri 10:10:00 AM 56.0911 -23.4186 91° East 529 609 35,000  Level FlightAware Transoceanic
Fri 10:11:00 AM 56.0874 -23.1551 92° East 529 609 35,000  Level FlightAware Transoceanic
Fri 10:12:00 AM 56.0832 -22.8917 92° East 529 609 35,000  Level FlightAware Transoceanic
Fri 10:13:00 AM 56.0785 -22.6284 92° East 529 609 35,000  Level FlightAware Transoceanic
Fri 10:14:00 AM 56.0731 -22.3651 92° East 529 609 35,000  Level FlightAware Transoceanic
Fri 10:15:00 AM 56.0672 -22.1019 92° East 529 609 35,000  Level FlightAware Transoceanic
Fri 10:16:00 AM 56.0608 -21.8388 93° East 529 609 35,000  Level FlightAware Transoceanic
Fri 10:17:00 AM 56.0538 -21.5758 93° East 529 609 35,000  Level FlightAware Transoceanic
Fri 10:18:00 AM 56.0462 -21.3129 93° East 529 609 35,000  Level FlightAware Transoceanic
Fri 10:19:00 AM 56.0381 -21.0500 93° East 529 609 35,000  Level FlightAware Transoceanic
Fri 10:20:00 AM 56.0294 -20.7873 93° East 529 609 35,000  Level FlightAware Transoceanic
Fri 10:21:00 AM 56.0202 -20.5248 94° East 529 609 35,000  Level FlightAware Transoceanic
Fri 10:22:00 AM 56.0104 -20.2623 94° East 529 609 35,000 55 Level FlightAware Transoceanic
Fri 10:23:00 AM 56.0005 -20.0134 94° East  Level FlightAware Approximate
Fri 10:24:00 AM 55.9903 -19.7646 94° East  Level FlightAware Approximate
Fri 10:25:00 AM 55.9837 -19.7793 97° East  Level FlightAware Approximate
Fri 10:26:00 AM 55.9649 -19.5322 98° East  Level FlightAware Approximate
Fri 10:27:00 AM 55.9456 -19.2854 98° East  Level FlightAware Approximate
Fri 10:28:00 AM 55.9259 -19.0388 98° East  Level FlightAware Approximate
Fri 10:29:00 AM 55.9056 -18.7925 98° East  Level FlightAware Approximate
Fri 10:30:00 AM 55.8849 -18.5464 98° East  Level FlightAware Approximate
Fri 10:31:00 AM 55.8637 -18.3006 99° East  Level FlightAware Approximate
Fri 10:32:00 AM 55.8419 -18.0551 99° East  Level FlightAware Approximate
Fri 10:33:00 AM 55.8197 -17.8099 99° East  Level FlightAware Approximate
Fri 10:34:00 AM 55.7971 -17.5649 99° East  Level FlightAware Approximate
Fri 10:35:00 AM 55.7739 -17.3202 99° East  Level FlightAware Approximate
Fri 10:36:00 AM 55.7502 -17.0758 100° East  Level FlightAware Approximate
Fri 10:37:00 AM 55.7261 -16.8317 100° East  Level FlightAware Approximate
Fri 10:38:00 AM 55.7014 -16.5879 100° East  Level FlightAware Approximate
Fri 10:39:00 AM 55.6763 -16.3445 100° East  Level FlightAware Approximate
Fri 10:40:00 AM 55.6507 -16.1013 100° East  Level FlightAware Approximate
Fri 10:41:00 AM 55.6246 -15.8585 101° East  Level FlightAware Approximate
Fri 10:42:00 AM 55.5981 -15.6160 101° East  Level FlightAware Approximate
Fri 10:43:00 AM 55.5717 -15.3736 101° East  Level FlightAware Approximate
Fri 10:44:00 AM 55.5448 -15.1315 101° East  Level FlightAware Approximate
Fri 10:45:00 AM 55.5173 -14.8898 101° East  Level FlightAware Approximate
Fri 10:46:00 AM 55.4895 -14.6484 101° East  Level FlightAware Approximate
Fri 10:47:00 AM 55.4611 -14.4074 102° East  Level FlightAware Approximate
Fri 10:48:00 AM 55.4323 -14.1667 102° East  Level FlightAware Approximate
Fri 10:49:00 AM 55.4030 -13.9264 102° East  Level FlightAware Approximate
Fri 10:50:00 AM 55.3732 -13.6864 102° East  Level FlightAware Approximate
Fri 10:51:00 AM 55.3430 -13.4468 102° East  Level FlightAware Approximate
Fri 10:52:00 AM 55.3122 -13.2076 103° East  Level FlightAware Approximate
Fri 10:53:00 AM 55.2811 -12.9687 103° East  Level FlightAware Approximate
Fri 10:54:00 AM 55.2494 -12.7302 103° East  Level FlightAware Approximate
Fri 10:55:00 AM 55.2173 -12.4921 103° East  Level FlightAware Approximate
Fri 10:56:00 AM 55.1848 -12.2544 103° East  Level FlightAware Approximate
Fri 10:57:00 AM 55.1517 -12.0170 104° East  Level FlightAware Approximate
Fri 10:57:07 AM 56.0200 -12.0180 104° East 490 564 37,000  Level FlightAware ADS-B
Fri 10:57:42 AM 56.0200 -11.8930 90° East 490 564 37,000  Level FlightAware ADS-B
Fri 10:58:32 AM 56.0190 -11.6760 90° East 490 564 37,000  Level FlightAware ADS-B
Fri 10:59:12 AM 56.0180 -11.5150 91° East 488 562 37,000  Level FlightAware ADS-B
Fri 10:59:52 AM 56.0170 -11.3550 91° East 488 562 37,000  Level FlightAware ADS-B
Fri 11:00:37 AM 56.0150 -11.1730 91° East 488 562 37,000  Level FlightAware ADS-B
Fri 11:01:17 AM 56.0120 -11.0110 92° East 488 562 37,000  Level FlightAware ADS-B
Fri 11:02:02 AM 56.0000 -10.8330 97° East 490 564 37,000  Level FlightAware ADS-B
Fri 11:02:42 AM 55.9900 -10.6720 96° East 490 564 37,000  Level FlightAware ADS-B
Fri 11:03:27 AM 55.9770 -10.4890 97° East 491 565 37,000 71 Level FlightAware ADS-B
Fri 11:04:07 AM 55.9660 -10.3290 97° East 493 567 37,100 75 Climbing FlightAware ADS-B
Fri 11:04:47 AM 55.9550 -10.1690 97° East 493 567 37,100  Level FlightAware ADS-B
Fri 11:05:32 AM 55.9420 -9.9880 97° East 492 566 37,100 -71 Level FlightAware ADS-B
Fri 11:06:12 AM 55.9290 -9.8250 98° East 491 565 37,000 -75 Descending FlightAware ADS-B
Fri 11:06:52 AM 55.9180 -9.6670 97° East 491 565 37,000  Level FlightAware ADS-B
Fri 11:09:00 AM 55.8116 -9.1716 111° Southeast  Level Estimated
Fri 11:09:02 AM 55.8410 -9.1830 111° Southeast 485 558 37,000  Level FlightAware ADS-B
Fri 11:09:54 AM 55.7774 -8.9798 111° Southeast 482 555 35,500  Descending FlightAware UK
Fri 11:10:12 AM 55.7630 -8.9360 111° Southeast 491 565 37,000  Climbing FlightAware ADS-B
Fri 11:10:30 AM 55.7373 -8.8540 111° Southeast 484 557 35,500 -2,500 Descending FlightAware UK
Fri 11:10:48 AM 55.7172 -8.7912 120° Southeast 486 559 35,500 4,364 Level FlightAware UK
Fri 11:10:52 AM 55.7190 -8.7970 120° Southeast 493 567 37,100  Climbing FlightAware ADS-B
Fri 11:11:12 AM 55.6902 -8.7072 120° Southeast 486 559 35,500 -2,526 Descending FlightAware UK
Fri 11:11:30 AM 55.6697 -8.6434 120° Southeast 484 557 35,500 3,840 Level FlightAware UK
Fri 11:11:37 AM 55.6670 -8.6360 120° Southeast 494 568 37,100  Climbing FlightAware ADS-B
Fri 11:11:54 AM 55.6427 -8.5591 120° Southeast 488 562 35,500 -2,743 Descending FlightAware UK
Fri 11:12:12 AM 55.6225 -8.4960 120° Southeast 486 559 35,500 4,174 Level FlightAware UK
Fri 11:12:17 AM 55.6210 -8.4920 120° Southeast 494 568 37,100  Climbing FlightAware ADS-B
Fri 11:12:36 AM 55.5953 -8.4121 120° Southeast 486 559 35,500 -2,595 Descending FlightAware UK
Fri 11:12:54 AM 55.5751 -8.3492 120° Southeast 484 557 35,500 4,571 Level FlightAware UK
Fri 11:12:57 AM 55.5770 -8.3550 120° Southeast 493 567 37,100  Climbing FlightAware ADS-B
Fri 11:13:12 AM 55.5549 -8.2864 120° Southeast 486 559 35,500 -2,909 Descending FlightAware UK
Fri 11:13:30 AM 55.5345 -8.2238 120° Southeast 486 559 35,500 3,600 Level FlightAware UK
Fri 11:13:37 AM 55.5320 -8.2160 120° Southeast 492 566 37,000  Climbing FlightAware ADS-B
Fri 11:13:54 AM 55.5071 -8.1407 120° Southeast 486 559 35,500 -2,571 Descending FlightAware UK
Fri 11:14:12 AM 55.4865 -8.0784 120° Southeast 486 559 35,500 3,214 Level FlightAware UK
Fri 11:14:22 AM 55.4800 -8.0600 120° Southeast 489 563 37,000  Climbing FlightAware ADS-B
Fri 11:14:42 AM 55.4520 -7.9747 120° Southeast 486 559 35,500 -2,368 Descending FlightAware UK
Fri 11:15:00 AM 55.4315 -7.9125 120° Southeast 486 559 35,500 4,500 Level FlightAware UK
Fri 11:15:02 AM 55.4350 -7.9220 120° Southeast 491 565 37,000  Climbing FlightAware ADS-B
Fri 11:15:18 AM 55.4110 -7.8503 120° Southeast 486 559 35,500 -2,647 Descending FlightAware UK
Fri 11:15:36 AM 55.3908 -7.7882 120° Southeast 484 557 35,500 3,103 Level FlightAware UK
Fri 11:15:47 AM 55.3830 -7.7660 120° Southeast 485 558 37,000  Climbing FlightAware ADS-B
Fri 11:16:06 AM 55.3565 -7.6857 120° Southeast 484 557 35,500 -2,432 Descending FlightAware UK
Fri 11:16:24 AM 55.3358 -7.6245 121° Southeast 482 555 35,500 4,286 Level FlightAware UK
Fri 11:16:27 AM 55.3380 -7.6310 121° Southeast 484 557 37,000 -333 Climbing FlightAware ADS-B
Fri 11:16:42 AM 55.3152 -7.5634 121° Southeast 482 555 35,400 -2,909 Descending FlightAware UK
Fri 11:17:00 AM 55.2947 -7.5022 120° Southeast 484 557 35,400 3,840 Level FlightAware UK
Fri 11:17:07 AM 55.2920 -7.4930 120° Southeast 483 556 37,000  Climbing FlightAware ADS-B
Fri 11:17:24 AM 55.2673 -7.4207 120° Southeast 482 555 35,400 -2,743 Descending FlightAware UK
Fri 11:17:42 AM 55.2465 -7.3590 121° Southeast 484 557 35,400 3,429 Level FlightAware UK
Fri 11:17:52 AM 55.2410 -7.3420 121° Southeast 482 555 37,000  Climbing FlightAware ADS-B
Fri 11:18:12 AM 55.2123 -7.2576 121° Southeast 482 555 35,400 -2,526 Descending FlightAware UK
Fri 11:18:30 AM 55.1916 -7.1972 121° Southeast 480 552 35,400 4,800 Level FlightAware UK
Fri 11:18:32 AM 55.1940 -7.2050 121° Southeast 481 554 37,000  Climbing FlightAware ADS-B
Fri 11:18:48 AM 55.1709 -7.1367 121° Southeast 482 555 35,400 -2,824 Descending FlightAware UK
Fri 11:19:06 AM 55.1502 -7.0764 121° Southeast 480 552 35,400 3,310 Level FlightAware UK
Fri 11:19:17 AM 55.1430 -7.0550 121° Southeast 482 555 37,000  Climbing FlightAware ADS-B
Fri 11:19:36 AM 55.1157 -6.9758 121° Southeast 480 552 35,400 -2,432 Descending FlightAware UK
Fri 11:19:54 AM 55.0949 -6.9152 121° Southeast 480 552 35,500 4,571 Climbing FlightAware UK
Fri 11:19:57 AM 55.0960 -6.9190 121° Southeast 485 558 37,000  Climbing FlightAware ADS-B
Fri 11:20:12 AM 55.0740 -6.8544 121° Southeast 486 559 35,500 -2,727 Descending FlightAware UK
Fri 11:20:30 AM 55.0529 -6.7931 121° Southeast 490 564 35,500 3,840 Level FlightAware UK
Fri 11:20:37 AM 55.0490 -6.7820 121° Southeast 492 566 37,100  Climbing FlightAware ADS-B
Fri 11:20:54 AM 55.0246 -6.7116 121° Southeast 488 562 35,500 -2,743 Descending FlightAware UK
Fri 11:21:12 AM 55.0032 -6.6508 122° Southeast 486 559 35,500 3,429 Level FlightAware UK
Fri 11:21:22 AM 54.9960 -6.6300 122° Southeast 492 566 37,100  Climbing FlightAware ADS-B
Fri 11:21:42 AM 54.9678 -6.5496 122° Southeast 486 559 35,500 -2,526 Descending FlightAware UK
Fri 11:22:00 AM 54.9466 -6.4890 121° Southeast 484 557 35,500 4,500 Level FlightAware UK
Fri 11:22:02 AM 54.9490 -6.4940 121° Southeast 491 565 37,000  Climbing FlightAware ADS-B
Fri 11:22:18 AM 54.9253 -6.4285 121° Southeast 484 557 35,500 -2,824 Descending FlightAware UK
Fri 11:22:36 AM 54.9041 -6.3679 121° Southeast 486 559 35,400 3,103 Descending FlightAware UK
Fri 11:22:47 AM 54.8960 -6.3430 121° Southeast 491 565 37,000 200 Climbing FlightAware ADS-B
Fri 11:23:06 AM 54.8686 -6.2671 121° Southeast 488 562 35,500 -2,432 Descending FlightAware UK
Fri 11:23:24 AM 54.8471 -6.2070 122° Southeast 484 557 35,500 4,286 Level FlightAware UK
Fri 11:23:27 AM 54.8490 -6.2110 122° Southeast 491 565 37,000  Climbing FlightAware ADS-B
Fri 11:23:42 AM 54.8256 -6.1473 122° Southeast 486 559 35,500 -2,727 Descending FlightAware UK
Fri 11:24:00 AM 54.8042 -6.0867 121° Southeast 486 559 35,500 3,600 Level FlightAware UK
Fri 11:24:07 AM 54.8000 -6.0740 121° Southeast 491 565 37,000  Climbing FlightAware ADS-B
Fri 11:24:24 AM 54.7758 -6.0065 121° Southeast 488 562 35,500 -2,571 Descending FlightAware UK
Fri 11:24:42 AM 54.7544 -5.9469 122° Southeast 486 559 35,500 3,214 Level FlightAware UK
Fri 11:24:52 AM 54.7470 -5.9270 122° Southeast 489 563 37,000  Climbing FlightAware ADS-B
Fri 11:25:12 AM 54.7182 -5.8473 122° Southeast 484 557 35,500 -2,368 Descending FlightAware UK
Fri 11:25:30 AM 54.6970 -5.7876 122° Southeast 480 552 35,500 4,500 Level FlightAware UK
Fri 11:25:32 AM 54.7000 -5.7960 122° Southeast 488 562 37,000 -333 Climbing FlightAware ADS-B
Fri 11:25:48 AM 54.6756 -5.7281 122° Southeast 482 555 35,400 -2,824 Descending FlightAware UK
Fri 11:26:06 AM 54.6541 -5.6688 122° Southeast 480 552 35,400 4,000 Level FlightAware UK
Fri 11:26:12 AM 54.6530 -5.6650 122° Southeast 489 563 37,000  Climbing FlightAware ADS-B
Fri 11:26:30 AM 54.6252 -5.5898 122° Southeast 482 555 35,400 -2,667 Descending FlightAware UK
Fri 11:26:48 AM 54.6037 -5.5302 122° Southeast 484 557 35,400 3,556 Level FlightAware UK
Fri 11:26:57 AM 54.6000 -5.5200 122° Southeast 491 565 37,000 250 Climbing FlightAware ADS-B
Fri 11:27:12 AM 54.5748 -5.4508 122° Southeast 484 557 35,500 -2,727 Descending FlightAware UK
Fri 11:27:30 AM 54.5529 -5.3914 122° Southeast 486 559 35,500 3,600 Level FlightAware UK
Fri 11:27:37 AM 54.5500 -5.3840 122° Southeast 492 566 37,000  Climbing FlightAware ADS-B
Fri 11:27:54 AM 54.5236 -5.3120 122° Southeast 484 557 35,500 -2,571 Descending FlightAware UK
Fri 11:28:12 AM 54.5016 -5.2528 123° Southeast 480 552 35,500 4,174 Level FlightAware UK
Fri 11:28:17 AM 54.5030 -5.2560 123° Southeast 491 565 37,100  Climbing FlightAware ADS-B
Fri 11:28:36 AM 54.4725 -5.1737 123° Southeast 480 552 35,500 -2,595 Descending FlightAware UK
Fri 11:28:54 AM 54.4506 -5.1144 122° Southeast 482 555 35,500 3,462 Level FlightAware UK
Fri 11:29:02 AM 54.4450 -5.0980 122° Southeast 494 568 37,000  Climbing FlightAware ADS-B
Fri 11:29:18 AM 54.4213 -5.0353 122° Southeast 484 557 35,500 -2,647 Descending FlightAware UK
Fri 11:29:36 AM 54.3990 -4.9762 123° Southeast 484 557 35,500 3,103 Level FlightAware UK
Fri 11:29:47 AM 54.3910 -4.9550 123° Southeast 495 570 37,000  Climbing FlightAware ADS-B
Fri 11:30:06 AM 54.3619 -4.8772 123° Southeast 486 559 35,500 -2,432 Descending FlightAware UK
Fri 11:30:24 AM 54.3394 -4.8171 123° Southeast 488 562 35,500 4,571 Level FlightAware UK
Fri 11:30:27 AM 54.3400 -4.8180 123° Southeast 496 571 37,100  Climbing FlightAware ADS-B
Fri 11:30:42 AM 54.3173 -4.7574 123° Southeast 488 562 35,500 -2,909 Descending FlightAware UK
Fri 11:31:00 AM 54.2952 -4.6977 122° Southeast 486 559 35,500 3,840 Level FlightAware UK
Fri 11:31:07 AM 54.2910 -4.6860 122° Southeast 495 570 37,100  Climbing FlightAware ADS-B
Fri 11:31:24 AM 54.2651 -4.6191 122° Southeast 484 557 35,500 -2,743 Descending FlightAware UK
Fri 11:31:42 AM 54.2426 -4.5602 123° Southeast 486 559 35,500 3,214 Level FlightAware UK
Fri 11:31:52 AM 54.2340 -4.5360 123° Southeast 495 570 37,000  Climbing FlightAware ADS-B
Fri 11:32:12 AM 54.2055 -4.4620 123° Southeast 482 555 35,500 -2,368 Descending FlightAware UK
Fri 11:32:30 AM 54.1833 -4.4030 123° Southeast 482 555 35,500 4,500 Level FlightAware UK
Fri 11:32:32 AM 54.1860 -4.4100 123° Southeast 494 568 37,000  Climbing FlightAware ADS-B
Fri 11:32:48 AM 54.1610 -4.3443 123° Southeast 482 555 35,500  Descending FlightAware UK
Fri 11:33:17 AM 54.1290 -4.2610 123° Southeast 493 567 37,000  Climbing FlightAware ADS-B
Fri 11:33:36 AM 54.1013 -4.1887 123° Southeast 484 557 35,500 -2,432 Descending FlightAware UK
Fri 11:33:54 AM 54.0789 -4.1307 123° Southeast 480 552 35,500 4,286 Level FlightAware UK
Fri 11:33:57 AM 54.0790 -4.1310 123° Southeast 490 564 37,000  Climbing FlightAware ADS-B
Fri 11:34:12 AM 54.0564 -4.0730 123° Southeast 478 550 35,500 -2,909 Descending FlightAware UK
Fri 11:34:30 AM 54.0340 -4.0153 123° Southeast 480 552 35,400 3,000 Descending FlightAware UK
Fri 11:34:42 AM 54.0220 -3.9830 123° Southeast 490 564 37,000  Climbing FlightAware ADS-B
Fri 11:35:01 AM 53.9964 -3.9185 123° Southeast 482 555 35,400 -2,595 Descending FlightAware UK
Fri 11:35:19 AM 53.9738 -3.8609 124° Southeast 480 552 35,400 4,571 Level FlightAware UK
Fri 11:35:22 AM 53.9730 -3.8570 124° Southeast 492 566 37,000  Climbing FlightAware ADS-B
Fri 11:35:37 AM 53.9560 -3.7980 124° Southeast 476 548 35,400  Descending FlightAware UK
Fri 11:36:02 AM 53.9390 -3.7100 124° Southeast 503 579 37,000  Climbing FlightAware ADS-B
Fri 11:36:19 AM 53.9272 -3.6405 124° Southeast 480 552 35,400  Descending FlightAware UK
Fri 11:36:47 AM 53.9100 -3.5460 124° Southeast 502 578 37,000 91 Climbing FlightAware ADS-B
Fri 11:37:25 AM 53.8819 -3.3927 124° Southeast 486 559 35,500  Descending FlightAware UK
Fri 11:37:27 AM 53.8820 -3.3960 124° Southeast 503 579 37,000 250 Climbing FlightAware ADS-B
Fri 11:37:49 AM 53.8647 -3.3024 124° Southeast 486 559 35,600 -2,250 Descending FlightAware UK
Fri 11:38:07 AM 53.8521 -3.2350 108° East 490 564 35,500 3,913 Descending FlightAware UK
Fri 11:38:12 AM 53.8500 -3.2240 108° East 502 578 37,100  Climbing FlightAware ADS-B
Fri 11:38:37 AM 53.8318 -3.1225 108° East 486 559 35,500  Descending FlightAware UK
Fri 11:38:52 AM 53.8230 -3.0740 108° East 500 575 37,100  Climbing FlightAware ADS-B
Fri 11:39:07 AM 53.8107 -3.0103 108° East 486 559 35,500 -2,909 Descending FlightAware UK
Fri 11:39:25 AM 53.7983 -2.9433 107° East 484 557 35,500 3,840 Level FlightAware UK
Fri 11:39:32 AM 53.7950 -2.9240 107° East 497 572 37,100 2,432 Climbing FlightAware ADS-B
Fri 11:40:02 AM 53.7740 -2.8140 108° East 495 570 37,000 -1,627 Descending FlightAware ADS-B
Fri 11:40:31 AM 53.7526 -2.6999 108° East 482 555 35,500  Descending FlightAware UK
Fri 11:40:42 AM 53.7470 -2.6680 108° East 492 566 37,000 -167 Climbing FlightAware ADS-B
Fri 11:41:07 AM 53.7279 -2.5686 108° East 476 548 35,400  Descending FlightAware UK
Fri 11:41:27 AM 53.7160 -2.5090 108° East 490 564 37,000 1,600 Climbing FlightAware ADS-B
Fri 11:42:07 AM 53.6880 -2.3620 108° East 494 568 37,000 -1,655 Level FlightAware ADS-B
Fri 11:42:25 AM 53.6726 -2.2850 108° East 478 550 35,400  Descending FlightAware UK
Fri 11:42:52 AM 53.6550 -2.1960 108° East 503 579 37,000 98 Climbing FlightAware ADS-B
Fri 11:43:26 AM 53.6288 -2.0608 108° East 484 557 35,500 133 Descending FlightAware UK
Fri 11:43:37 AM 53.6209 -2.0217 108° East 509 586 37,100  Climbing FlightAware ADS-B
Fri 11:43:56 AM 53.6063 -1.9476 108° East 486 559 35,500  Descending FlightAware UK
Fri 11:44:13 AM 53.5937 -1.8833 108° East 511 588 37,100 2,000 Climbing FlightAware ADS-B
Fri 11:44:44 AM 53.5710 -1.7674 108° East 511 588 37,100 -1,959 Level FlightAware ADS-B
Fri 11:45:02 AM 53.5572 -1.6985 108° East 488 562 35,500  Descending FlightAware UK
Fri 11:45:19 AM 53.5443 -1.6363 108° East 510 587 37,100  Climbing FlightAware ADS-B
Fri 11:45:56 AM 53.5160 -1.4963 108° East 486 559 35,500 -1,745 Descending FlightAware UK
Fri 11:46:14 AM 53.5025 -1.4288 109° East 482 555 35,500 3,600 Level FlightAware UK
Fri 11:46:21 AM 53.4976 -1.4045 109° East 512 589 37,000  Climbing FlightAware ADS-B
Fri 11:46:44 AM 53.4794 -1.3156 109° East 488 562 35,500  Descending FlightAware UK
Fri 11:46:52 AM 53.4736 -1.2867 109° East 513 590 37,000  Climbing FlightAware ADS-B
Fri 11:47:14 AM 53.4564 -1.2023 109° East 486 559 35,500  Descending FlightAware UK
Fri 11:47:26 AM 53.4479 -1.1609 109° East 512 589 37,000 2,143 Climbing FlightAware ADS-B
Fri 11:47:56 AM 53.4250 -1.0499 109° East 509 586 37,000 -1,875 Level FlightAware ADS-B
Fri 11:48:14 AM 53.4103 -0.9783 109° East 488 562 35,500  Descending FlightAware UK
Fri 11:48:27 AM 53.4020 -0.9400 109° East 505 581 37,000 2,308 Climbing FlightAware ADS-B
Fri 11:48:53 AM 53.3809 -0.8385 109° East 503 579 37,000 -2,000 Level FlightAware ADS-B
Fri 11:49:15 AM 53.3642 -0.7582 109° East 484 557 35,400  Descending FlightAware UK
Fri 11:49:25 AM 53.3566 -0.7224 109° East 500 575 37,000 2,043 Climbing FlightAware ADS-B
Fri 11:50:02 AM 53.3281 -0.5867 109° East 499 574 37,000 -1,714 Level FlightAware ADS-B
Fri 11:50:21 AM 53.3138 -0.5186 109° East 478 550 35,400  Descending FlightAware UK
Fri 11:50:32 AM 53.3080 -0.4910 109° East 495 570 37,000 4,571 Climbing FlightAware ADS-B
Fri 11:50:42 AM 53.2982 -0.4457 110° East 495 570 37,000 -3,840 Level FlightAware ADS-B
Fri 11:50:57 AM 53.2861 -0.3889 110° East 476 548 35,400  Descending FlightAware UK
Fri 11:51:13 AM 53.2739 -0.3324 110° East 496 571 37,000 2,043 Climbing FlightAware ADS-B
Fri 11:51:44 AM 53.2501 -0.2208 110° East 497 572 37,000 -1,800 Level FlightAware ADS-B
Fri 11:52:03 AM 53.2350 -0.1514 110° East 480 552 35,500  Descending FlightAware UK
Fri 11:52:15 AM 53.2260 -0.1117 110° East 497 572 37,000  Climbing FlightAware ADS-B
Fri 11:52:33 AM 53.2111 -0.0437 110° East 478 550 35,500  Descending FlightAware UK
Fri 11:52:45 AM 53.2022 -0.0030 110° East 499 574 37,000  Climbing FlightAware ADS-B
Fri 11:53:03 AM 53.1875 0.0644 110° East 480 552 35,500  Descending FlightAware UK
Fri 11:53:16 AM 53.1779 0.1090 110° East 500 575 37,000 2,182 Climbing FlightAware ADS-B
Fri 11:53:47 AM 53.1536 0.2201 110° East 499 574 37,100 -1,698 Climbing FlightAware ADS-B
Fri 11:54:09 AM 53.1349 0.3040 110° East 482 555 35,500  Descending FlightAware UK
Fri 11:54:17 AM 53.1296 0.3279 110° East 500 575 37,100  Climbing FlightAware ADS-B
Fri 11:54:33 AM 53.1160 0.3896 110° East 482 555 35,500  Descending FlightAware UK
Fri 11:54:47 AM 53.1054 0.4369 110° East 498 573 37,100 2,182 Climbing FlightAware ADS-B
Fri 11:55:17 AM 53.0814 0.5448 110° East 496 571 37,100 -2,087 Level FlightAware ADS-B
Fri 11:55:33 AM 53.0679 0.6048 110° East 480 552 35,500 -194 Descending FlightAware UK
Fri 11:55:48 AM 53.0569 0.6526 110° East 494 568 37,000 2,000 Climbing FlightAware ADS-B
Fri 11:56:18 AM 53.0327 0.7603 110° East 493 567 37,000 -1,731 Level FlightAware ADS-B
Fri 11:56:40 AM 53.0152 0.8388 110° East 476 548 35,500  Descending FlightAware UK
Fri 11:56:48 AM 53.0088 0.8671 110° East 492 566 37,000 -250 Climbing FlightAware ADS-B
Fri 11:57:04 AM 52.9963 0.9235 110° East 470 541 35,400  Descending FlightAware UK
Fri 11:57:19 AM 52.9850 0.9737 110° East 493 567 37,000 2,824 Climbing FlightAware ADS-B
Fri 11:57:38 AM 52.9733 1.0464 105° East 499 574 37,000  Level FlightAware ADS-B
Fri 11:58:09 AM 52.9600 1.1619 101° East 505 581 37,000 98 Level FlightAware ADS-B
Fri 11:58:39 AM 52.9463 1.2763 101° East 506 582 37,100 97 Climbing FlightAware ADS-B
Fri 11:59:11 AM 52.9320 1.3972 101° East 507 583 37,100 -1,745 Level FlightAware ADS-B
Fri 11:59:34 AM 52.9218 1.4871 101° East 486 559 35,500  Descending FlightAware UK
Fri 11:59:41 AM 52.9186 1.5107 101° East 504 580 37,100  Climbing FlightAware ADS-B
Fri 11:59:58 AM 52.9108 1.5785 101° East 478 550 35,500 -200 Descending FlightAware UK
Fri 12:00:11 PM 52.9052 1.6250 101° East 496 571 37,000 3,600 Climbing FlightAware ADS-B
Fri 12:00:23 PM 52.8988 1.6658 105° East 492 566 37,000  Level FlightAware ADS-B
Fri 12:00:35 PM 52.8893 1.7077 111° Southeast 488 562 37,000 -3,310 Level FlightAware ADS-B
Fri 12:00:52 PM 52.8724 1.7694 111° Southeast 472 543 35,400  Descending FlightAware UK
Fri 12:01:05 PM 52.8613 1.8115 111° Southeast 486 559 37,000  Climbing FlightAware ADS-B
Fri 12:01:34 PM 52.8343 1.9125 111° Southeast 470 541 35,400  Descending FlightAware UK
Fri 12:01:37 PM 52.8360 1.9070 111° Southeast 488 562 37,000 3,097 Climbing FlightAware ADS-B
Fri 12:02:05 PM 52.8066 2.0150 114° Southeast 493 567 37,000 -2,133 Level FlightAware ADS-B
Fri 12:02:22 PM 52.7905 2.0755 114° Southeast 476 548 35,400  Descending FlightAware UK
Fri 12:02:37 PM 52.7770 2.1252 114° Southeast 496 571 37,000 167 Climbing FlightAware ADS-B
Fri 12:02:58 PM 52.7567 2.2003 114° Southeast 478 550 35,500 200 Descending FlightAware UK
Fri 12:03:07 PM 52.7510 2.2220 114° Southeast 498 573 37,100  Climbing FlightAware ADS-B
Fri 12:03:34 PM 52.7228 2.3257 114° Southeast 482 555 35,500  Descending FlightAware UK
Fri 12:03:52 PM 52.7100 2.3720 114° Southeast 499 574 37,100  Climbing FlightAware ADS-B
Fri 12:04:10 PM 52.6888 2.4503 114° Southeast 482 555 35,500 -2,667 Descending FlightAware UK
Fri 12:04:28 PM 52.6719 2.5127 114° Southeast 478 550 35,500 4,364 Level FlightAware UK
Fri 12:04:32 PM 52.6740 2.5060 114° Southeast 499 574 37,100 1,837 Climbing FlightAware ADS-B
Fri 12:05:17 PM 52.6300 2.6650 114° Southeast 499 574 37,000 -71 Descending FlightAware ADS-B
Fri 12:05:57 PM 52.5900 2.8090 115° Southeast 498 573 37,000  Level FlightAware ADS-B
Fri 12:06:32 PM 52.5590 2.9180 115° Southeast 496 571 37,000 -1,800 Level FlightAware ADS-B
Fri 12:06:47 PM 52.5397 2.9882 115° Southeast 474 545 35,500  Descending FlightAware UK
Fri 12:07:22 PM 52.5080 3.1020 115° Southeast 494 568 37,000 1,200 Climbing FlightAware ADS-B
Fri 12:08:02 PM 52.4720 3.2270 115° Southeast 493 567 37,000 -1,215 Level FlightAware ADS-B
Fri 12:08:41 PM 52.4307 3.3739 115° Southeast 476 548 35,400  Descending FlightAware UK
Fri 12:08:47 PM 52.4280 3.3840 115° Southeast 492 566 37,000  Climbing FlightAware ADS-B
Fri 12:09:11 PM 52.4019 3.4756 115° Southeast 472 543 35,400  Descending FlightAware UK
Fri 12:09:27 PM 52.3900 3.5170 115° Southeast 492 566 37,000  Climbing FlightAware ADS-B
Fri 12:09:53 PM 52.3617 3.6170 115° Southeast 472 543 35,400  Descending FlightAware UK
Fri 12:10:07 PM 52.3510 3.6550 115° Southeast 492 566 37,000 1,627 Climbing FlightAware ADS-B
Fri 12:10:52 PM 52.3060 3.8100 115° Southeast 496 571 37,000 71 Level FlightAware ADS-B
Fri 12:11:32 PM 52.2670 3.9410 116° Southeast 498 573 37,100 75 Climbing FlightAware ADS-B
Fri 12:12:12 PM 52.2300 4.0700 115° Southeast 498 573 37,100 -1,684 Level FlightAware ADS-B
Fri 12:12:29 PM 52.2081 4.1437 115° Southeast 478 550 35,500 -150 Descending FlightAware UK
Fri 12:12:52 PM 52.1890 4.2090 115° Southeast 495 570 37,000  Climbing FlightAware ADS-B
Fri 12:13:11 PM 52.1665 4.2847 115° Southeast 476 548 35,500  Descending FlightAware UK
Fri 12:13:37 PM 52.1430 4.3650 115° Southeast 494 568 37,000  Climbing FlightAware ADS-B
Fri 12:13:53 PM 52.1245 4.4245 115° Southeast 474 545 35,500 -2,250 Descending FlightAware UK
Fri 12:14:17 PM 52.1008 4.5043 116° Southeast 474 545 35,500 3,103 Level FlightAware UK
Fri 12:14:22 PM 52.1000 4.5100 116° Southeast 491 565 37,000  Climbing FlightAware ADS-B
Fri 12:14:47 PM 52.0716 4.6049 116° Southeast 476 548 35,500 -2,093 Descending FlightAware UK
Fri 12:15:05 PM 52.0546 4.6651 115° Southeast 474 545 35,500  Level FlightAware UK
Fri 12:15:29 PM 52.0313 4.7447 115° Southeast 476 548 35,500 1,915 Level FlightAware UK
Fri 12:15:52 PM 52.0100 4.8100 115° Southeast 489 563 37,000  Climbing FlightAware ADS-B
Fri 12:16:17 PM 51.9820 4.9013 115° Southeast 470 541 35,500  Descending FlightAware UK
Fri 12:16:32 PM 51.9710 4.9380 115° Southeast 489 563 37,000  Climbing FlightAware ADS-B
Fri 12:16:53 PM 51.9465 5.0195 115° Southeast 476 548 35,500 -2,308 Descending FlightAware UK
Fri 12:17:11 PM 51.9283 5.0784 117° Southeast 478 550 35,500 1,500 Level FlightAware UK
Fri 12:17:57 PM 51.8830 5.2240 117° Southeast 491 565 37,100  Climbing FlightAware ADS-B
Fri 12:18:17 PM 51.8631 5.2963 117° Southeast 484 557 35,500  Descending FlightAware UK
Fri 12:18:37 PM 51.8440 5.3510 117° Southeast 491 565 37,100  Climbing FlightAware ADS-B
Fri 12:18:53 PM 51.8264 5.4141 117° Southeast 486 559 35,500 -2,400 Descending FlightAware UK
Fri 12:19:17 PM 51.8013 5.4919 118° Southeast 482 555 35,500 3,310 Level FlightAware UK
Fri 12:19:22 PM 51.7990 5.4980 118° Southeast 484 557 37,100  Climbing FlightAware ADS-B
Fri 12:19:41 PM 51.7766 5.5690 118° Southeast 478 550 35,500 -150 Descending FlightAware UK
Fri 12:20:02 PM 51.7610 5.6200 118° Southeast 479 551 37,000  Climbing FlightAware ADS-B
Fri 12:20:17 PM 51.7401 5.6834 118° Southeast 474 545 35,500 -2,909 Descending FlightAware UK
Fri 12:20:35 PM 51.7213 5.7396 118° Southeast 474 545 35,400 3,600 Descending FlightAware UK
Fri 12:20:42 PM 51.7190 5.7540 118° Southeast 475 547 37,000 1,615 Climbing FlightAware ADS-B
Fri 12:21:27 PM 51.6750 5.8930 117° Southeast 476 548 36,800 -918 Descending FlightAware ADS-B
Fri 12:22:07 PM 51.6350 6.0180 117° Southeast 477 549 35,700 -1,725 Descending FlightAware ADS-B
Fri 12:22:47 PM 51.5950 6.1450 117° Southeast 472 543 34,500 -1,765 Descending FlightAware ADS-B
Fri 12:23:32 PM 51.5520 6.2790 117° Southeast 465 535 33,200 -1,765 Descending FlightAware ADS-B
Fri 12:24:12 PM 51.5120 6.4020 118° Southeast 450 518 32,000 -1,835 Descending FlightAware ADS-B
Fri 12:24:57 PM 51.4700 6.5350 117° Southeast 434 499 30,600 -1,800 Descending FlightAware ADS-B
Fri 12:25:32 PM 51.4400 6.6290 117° Southeast 423 487 29,600 -1,760 Descending FlightAware ADS-B
Fri 12:26:12 PM 51.4050 6.7350 118° Southeast 411 473 28,400 -1,867 Descending FlightAware ADS-B
Fri 12:27:02 PM 51.3580 6.8770 118° Southeast 407 468 26,800 -1,467 Descending FlightAware ADS-B
Fri 12:27:42 PM 51.3260 6.9750 118° Southeast 400 460 26,200 -565 Descending FlightAware ADS-B
Fri 12:28:27 PM 51.2830 7.0960 120° Southeast 396 456 26,000 -150 Descending FlightAware ADS-B
Fri 12:29:02 PM 51.2390 7.1660 135° Southeast 388 447 26,000  Level FlightAware ADS-B
Fri 12:29:47 PM 51.1710 7.2270 151° Southeast 382 440 26,000  Level FlightAware ADS-B
Fri 12:30:27 PM 51.1060 7.2810 152° Southeast 384 442 26,000 -675 Level FlightAware ADS-B
Fri 12:31:07 PM 51.0460 7.3400 148° Southeast 388 447 25,100 -1,733 Descending FlightAware ADS-B
Fri 12:31:57 PM 50.9710 7.4150 148° Southeast 382 440 23,400 -2,067 Descending FlightAware ADS-B
Fri 12:32:37 PM 50.9270 7.5040 128° Southeast 382 440 22,000 -2,080 Descending FlightAware ADS-B
Fri 12:33:12 PM 50.8880 7.5840 128° Southeast 380 437 20,800 -2,047 Descending FlightAware ADS-B
Fri 12:34:02 PM 50.8390 7.6870 127° Southeast 376 433 19,100 -2,057 Descending FlightAware ADS-B
Fri 12:34:57 PM 50.7830 7.8070 126° Southeast 365 420 17,200 -2,084 Descending FlightAware ADS-B
Fri 12:35:37 PM 50.7410 7.8930 128° Southeast 360 414 15,800 -1,835 Descending FlightAware ADS-B
Fri 12:36:22 PM 50.6970 7.9870 126° Southeast 352 405 14,600 -1,553 Descending FlightAware ADS-B
Fri 12:37:02 PM 50.6580 8.0670 128° Southeast 341 392 13,600 -1,482 Descending FlightAware ADS-B
Fri 12:37:47 PM 50.6150 8.1560 127° Southeast 341 392 12,500 -1,412 Descending FlightAware ADS-B
Fri 12:38:27 PM 50.5780 8.2330 127° Southeast 327 376 11,600 -1,200 Descending FlightAware ADS-B
Fri 12:39:07 PM 50.5420 8.3080 127° Southeast 305 351 10,900 -1,059 Descending FlightAware ADS-B
Fri 12:39:52 PM 50.5050 8.3870 126° Southeast 292 336 10,100 -635 Descending FlightAware ADS-B
Fri 12:40:32 PM 50.4750 8.4490 127° Southeast 264 304 10,000 -92 Descending FlightAware ADS-B
Fri 12:40:57 PM 50.4570 8.4850 128° Southeast 264 304 10,000  Level FlightAware ADS-B
Fri 12:41:42 PM 50.4230 8.5570 127° Southeast 266 306 10,000  Level FlightAware ADS-B
Fri 12:42:27 PM 50.3890 8.6260 128° Southeast 269 310 10,000  Level FlightAware ADS-B
Fri 12:43:07 PM 50.3630 8.6940 121° Southeast 269 310 10,000 -462 Level FlightAware ADS-B
Fri 12:43:32 PM 50.3490 8.7370 117° Southeast 264 304 9,500 -1,091 Descending FlightAware ADS-B
Fri 12:44:02 PM 50.3320 8.7860 119° Southeast 264 304 9,000 -933 Descending FlightAware ADS-B
Fri 12:44:17 PM 50.3230 8.8110 119° Southeast 260 299 8,800 -933 Descending FlightAware ADS-B
Fri 12:44:47 PM 50.3060 8.8600 118° Southeast 257 296 8,300 -982 Descending FlightAware ADS-B
Fri 12:45:12 PM 50.2970 8.9020 109° East 256 295 7,900 -1,091 Descending FlightAware ADS-B
Fri 12:45:42 PM 50.2960 8.9660 91° East 252 290 7,300 -1,067 Descending FlightAware ADS-B
Fri 12:45:57 PM 50.2960 8.9950 90° East 251 289 7,100 -933 Descending FlightAware ADS-B
Fri 12:46:27 PM 50.2960 9.0460 90° East 253 291 6,600 -982 Descending FlightAware ADS-B
Fri 12:46:52 PM 50.2960 9.0920 90° East 249 287 6,200 -933 Descending FlightAware ADS-B
Fri 12:47:12 PM 50.2960 9.1280 90° East 251 289 5,900 -750 Descending FlightAware ADS-B
Fri 12:47:32 PM 50.2950 9.1650 92° East 251 289 5,700 -600 Descending FlightAware ADS-B
Fri 12:48:02 PM 50.2830 9.2130 111° Southeast 244 281 5,400 -533 Descending FlightAware ADS-B
Fri 12:48:17 PM 50.2670 9.2220 160° South 237 273 5,300 -450 Descending FlightAware ADS-B
Fri 12:48:42 PM 50.2400 9.2240 177° South 235 270 5,100 -655 Descending FlightAware ADS-B
Fri 12:49:12 PM 50.2130 9.2050 204° Southwest 210 242 4,700 -655 Descending FlightAware ADS-B
Fri 12:49:37 PM 50.1970 9.1780 227° Southwest 194 223 4,500 -545 Descending FlightAware ADS-B
Fri 12:50:07 PM 50.1790 9.1470 228° Southwest 177 204 4,200 -600 Descending FlightAware ADS-B
Fri 12:50:37 PM 50.1660 9.1180 235° Southwest 165 190 3,900 -327 Descending FlightAware ADS-B
Fri 12:51:02 PM 50.1590 9.0910 248° West 165 190 3,900  Level FlightAware ADS-B
Fri 12:51:17 PM 50.1550 9.0740 250° West 166 191 3,900  Level FlightAware ADS-B
Fri 12:51:47 PM 50.1470 9.0390 250° West 165 190 3,900  Level FlightAware ADS-B
Fri 12:52:12 PM 50.1410 9.0140 249° West 166 191 3,900  Level FlightAware ADS-B
Fri 12:52:42 PM 50.1330 8.9790 250° West 165 190 3,900  Level FlightAware ADS-B
Fri 12:53:12 PM 50.1250 8.9450 250° West 165 190 3,900  Level FlightAware ADS-B
Fri 12:53:37 PM 50.1180 8.9150 250° West 177 204 3,900  Level FlightAware ADS-B
Fri 12:54:07 PM 50.1100 8.8790 251° West 176 203 3,900  Level FlightAware ADS-B
Fri 12:54:37 PM 50.1010 8.8430 249° West 177 204 3,900 -436 Level FlightAware ADS-B
Fri 12:55:02 PM 50.0940 8.8140 249° West 179 206 3,500 -1,200 Descending FlightAware ADS-B
Fri 12:55:17 PM 50.0890 8.7940 249° West 179 206 3,100 -1,050 Descending FlightAware ADS-B
Fri 12:55:42 PM 50.0830 8.7660 252° West 173 199 2,800 -873 Descending FlightAware ADS-B
Fri 12:56:12 PM 50.0750 8.7320 250° West 165 190 2,300 -900 Descending FlightAware ADS-B
Fri 12:56:42 PM 50.0670 8.6990 249° West 153 176 1,900 -750 Descending FlightAware ADS-B
Fri 12:56:52 PM 50.0650 8.6900 251° West 144 166 1,800 -750 Descending FlightAware ADS-B
Fri 12:57:22 PM 50.0580 8.6610 249° West 138 159 1,400 -800 Descending FlightAware ADS-B
Fri 12:57:37 PM 50.0540 8.6460 247° West 136 157 1,200 -750 Descending FlightAware ADS-B
Fri 12:58:02 PM 50.0490 8.6240 251° West 144 166 900 -764 Descending FlightAware ADS-B
Fri 12:58:32 PM 50.0430 8.5980 250° West 145 167 500 -800 Descending FlightAware ADS-B

Login

Don't have an account? Register now (free) for customized features, flight alerts, and more!